Time;durP1;ratioP1;P1;durP2;ratioP2;P2;SDS_P1;SDS_P2;PMS_P1;PMS_P2;Temp;Humidity;BMP_temperature;BMP_pressure;BME280_temperature;BME280_humidity;BME280_pressure;Samples;Min_cycle;Max_cycle;Signal;HPM_P1;HPM_P2
2022/09/16 00:00:56;;;;;;;;;;;13.40;99.90;;;;;;5023376;28;19917;-74
2022/09/16 00:03:22;;;;;;;;;;;13.40;99.90;;;;;;5016969;28;20224;-73
2022/09/16 00:05:51;;;;;;;;;;;13.40;99.90;;;;;;5110269;28;19920;-73
2022/09/16 00:14:23;;;;;;;;;;;13.40;99.90;;;;;;5097976;28;19927;-73
2022/09/16 00:16:50;;;;;;;;;;;13.40;99.90;;;;;;5105088;28;19952;-73
2022/09/16 00:25:33;;;;;;;;;;;13.40;99.90;;;;;;4983319;28;19917;-73
2022/09/16 00:28:00;;;;;;;;;;;13.40;99.90;;;;;;5039022;28;19932;-73
2022/09/16 00:36:44;;;;;;;;;;;13.40;99.90;;;;;;4944539;28;20172;-73
2022/09/16 00:39:11;;;;;;;;;;;13.40;99.90;;;;;;5079623;28;19926;-73
2022/09/16 00:45:14;;;;;;;;;;;13.50;99.90;;;;;;4981991;28;20194;-74
2022/09/16 00:47:41;;;;;;;;;;;13.40;99.90;;;;;;5005677;28;20208;-74
2022/09/16 00:50:10;;;;;;;;;;;13.40;99.90;;;;;;5089201;28;19926;-73
2022/09/16 00:58:29;;;;;;;;;;;13.50;99.90;;;;;;5010960;28;19924;-73
2022/09/16 01:00:57;;;;;;;;;;;13.40;99.90;;;;;;5104098;28;19954;-73
2022/09/16 01:03:25;;;;;;;;;;;13.40;99.90;;;;;;5104040;28;20119;-74
2022/09/16 01:09:15;;;;;;;;;;;13.50;99.90;;;;;;5025375;28;19923;-73
2022/09/16 01:11:41;;;;;;;;;;;13.40;99.90;;;;;;5042084;28;19927;-74
2022/09/16 01:23:10;;;;;;;;;;;13.50;99.90;;;;;;5103904;28;19972;-73
2022/09/16 01:25:43;;;;;;;;;;;13.50;99.90;;;;;;5118193;28;20111;-74
2022/09/16 01:31:21;;;;;;;;;;;13.40;99.90;;;;;;5081972;28;19915;-73
2022/09/16 01:33:54;;;;;;;;;;;13.40;99.90;;;;;;5123323;28;19926;-74
2022/09/16 01:36:57;;;;;;;;;;;;;;;;;;;;;
2022/09/16 01:42:20;;;;;;;;;;;13.40;99.90;;;;;;5079241;28;20175;-73
2022/09/16 01:44:51;;;;;;;;;;;13.40;99.90;;;;;;5092503;28;20019;-73
2022/09/16 01:53:32;;;;;;;;;;;13.40;99.90;;;;;;5055414;28;19920;-73
2022/09/16 01:56:00;;;;;;;;;;;13.40;99.90;;;;;;5120020;28;19926;-74
2022/09/16 01:58:28;;;;;;;;;;;13.40;99.90;;;;;;5118251;28;20225;-73
2022/09/16 02:01:00;;;;;;;;;;;13.40;99.90;;;;;;5103354;28;20134;-73
2022/09/16 02:03:29;;;;;;;;;;;13.40;99.90;;;;;;5103088;28;19926;-73
2022/09/16 02:05:58;;;;;;;;;;;13.40;99.90;;;;;;5104517;28;19920;-74
2022/09/16 02:08:27;;;;;;;;;;;13.40;99.90;;;;;;5102941;28;19920;-73
2022/09/16 02:10:58;;;;;;;;;;;13.40;99.90;;;;;;5103216;28;19926;-73
2022/09/16 02:13:27;;;;;;;;;;;13.30;99.90;;;;;;5103232;28;19919;-74
2022/09/16 02:15:56;;;;;;;;;;;13.30;99.90;;;;;;5103386;28;20204;-73
2022/09/16 02:18:24;;;;;;;;;;;13.30;99.90;;;;;;5103206;28;19928;-74
2022/09/16 02:20:53;;;;;;;;;;;13.30;99.90;;;;;;5098172;28;19927;-73
2022/09/16 02:23:21;;;;;;;;;;;13.30;99.90;;;;;;5103168;28;19920;-73
2022/09/16 02:25:48;;;;;;;;;;;13.20;99.90;;;;;;5103840;28;20234;-74
2022/09/16 02:28:19;;;;;;;;;;;13.20;99.90;;;;;;5102679;28;19953;-73
2022/09/16 02:30:48;;;;;;;;;;;13.20;99.90;;;;;;5102665;28;19920;-73
2022/09/16 02:33:16;;;;;;;;;;;13.20;99.90;;;;;;5103298;28;19963;-73
2022/09/16 02:35:44;;;;;;;;;;;13.20;99.90;;;;;;5103294;28;19926;-73
2022/09/16 02:38:12;;;;;;;;;;;13.20;99.90;;;;;;5096612;28;19927;-73
2022/09/16 02:40:41;;;;;;;;;;;13.20;99.90;;;;;;5099934;28;19987;-73
2022/09/16 02:43:08;;;;;;;;;;;13.10;99.90;;;;;;5104515;28;20199;-73
2022/09/16 02:45:39;;;;;;;;;;;13.20;99.90;;;;;;5103248;28;20123;-74
2022/09/16 02:48:10;;;;;;;;;;;13.20;99.90;;;;;;5106816;28;20134;-73
2022/09/16 02:50:40;;;;;;;;;;;13.20;99.90;;;;;;5106740;28;20138;-74
2022/09/16 02:53:12;;;;;;;;;;;13.20;99.90;;;;;;5106785;28;19926;-74
2022/09/16 02:55:44;;;;;;;;;;;13.20;99.90;;;;;;5118950;28;19934;-74
2022/09/16 02:58:11;;;;;;;;;;;13.20;99.90;;;;;;5127198;28;19983;-74
2022/09/16 03:00:43;;;;;;;;;;;13.20;99.90;;;;;;5110467;28;19980;-73
2022/09/16 03:03:09;;;;;;;;;;;13.20;99.90;;;;;;5106900;28;19920;-74
2022/09/16 03:05:56;;;;;;;;;;;13.20;99.90;;;;;;5106481;28;20077;-73
2022/09/16 03:08:22;;;;;;;;;;;13.10;99.90;;;;;;5106194;28;19920;-73
2022/09/16 03:10:51;;;;;;;;;;;13.10;99.90;;;;;;5106350;28;19987;-73
2022/09/16 03:13:20;;;;;;;;;;;13.10;99.90;;;;;;5106440;28;19920;-73
2022/09/16 03:15:56;;;;;;;;;;;13.10;99.90;;;;;;5106619;28;19920;-73
2022/09/16 03:18:38;;;;;;;;;;;13.10;99.90;;;;;;5106207;28;19983;-73
2022/09/16 03:21:08;;;;;;;;;;;13.00;99.90;;;;;;5106473;28;20083;-73
2022/09/16 03:23:43;;;;;;;;;;;13.00;99.90;;;;;;5106622;28;20162;-73
2022/09/16 03:26:13;;;;;;;;;;;13.00;99.90;;;;;;5109389;28;20148;-74
2022/09/16 03:28:43;;;;;;;;;;;12.90;99.90;;;;;;5121227;28;19926;-73
2022/09/16 03:31:13;;;;;;;;;;;12.90;99.90;;;;;;5105640;28;19920;-74
2022/09/16 03:33:43;;;;;;;;;;;12.90;99.90;;;;;;5106274;28;19926;-73
2022/09/16 03:36:12;;;;;;;;;;;13.00;99.90;;;;;;5106071;28;19987;-73
2022/09/16 03:38:40;;;;;;;;;;;12.90;99.90;;;;;;5105834;28;20000;-73
2022/09/16 03:41:07;;;;;;;;;;;12.90;99.90;;;;;;5105503;28;20215;-73
2022/09/16 03:43:33;;;;;;;;;;;12.90;99.90;;;;;;5106196;28;19932;-73
2022/09/16 03:46:00;;;;;;;;;;;12.90;99.90;;;;;;5119420;28;20151;-73
2022/09/16 03:48:28;;;;;;;;;;;12.90;99.90;;;;;;5126255;28;19983;-73
2022/09/16 03:50:55;;;;;;;;;;;12.90;99.90;;;;;;5113191;28;19920;-73
2022/09/16 03:53:21;;;;;;;;;;;12.90;99.90;;;;;;5105547;28;20222;-73
2022/09/16 03:55:48;;;;;;;;;;;12.90;99.90;;;;;;5116868;28;19983;-73
2022/09/16 03:58:15;;;;;;;;;;;12.90;99.90;;;;;;5125828;28;19920;-72
2022/09/16 04:00:41;;;;;;;;;;;12.80;99.90;;;;;;5103499;28;19979;-72
2022/09/16 04:03:08;;;;;;;;;;;12.80;99.90;;;;;;5095210;28;20136;-73
2022/09/16 04:05:36;;;;;;;;;;;12.80;99.90;;;;;;5114280;28;19979;-73
2022/09/16 04:08:02;;;;;;;;;;;12.80;99.90;;;;;;5120688;22;20106;-90
2022/09/16 04:10:29;;;;;;;;;;;12.80;99.90;;;;;;5085794;28;20001;-89
2022/09/16 04:12:56;;;;;;;;;;;12.80;99.90;;;;;;5086542;28;19963;-90
2022/09/16 04:15:23;;;;;;;;;;;12.70;99.90;;;;;;5085788;28;20211;-89
2022/09/16 04:17:50;;;;;;;;;;;12.80;99.90;;;;;;5085638;28;19921;-89
2022/09/16 04:20:16;;;;;;;;;;;12.80;99.90;;;;;;5085468;28;19940;-90
2022/09/16 04:22:45;;;;;;;;;;;12.80;99.90;;;;;;5076649;28;19913;-95
2022/09/16 04:25:12;;;;;;;;;;;12.80;99.90;;;;;;5095195;28;20036;-94
2022/09/16 04:31:13;;;;;;;;;;;12.70;99.90;;;;;;5087305;28;19968;-94
2022/09/16 04:33:40;;;;;;;;;;;12.80;99.90;;;;;;5097529;28;19934;-92
2022/09/16 04:36:11;;;;;;;;;;;12.80;99.90;;;;;;5098876;28;19932;-93
2022/09/16 04:41:42;;;;;;;;;;;12.70;99.90;;;;;;5098075;28;19908;-88
2022/09/16 04:44:10;;;;;;;;;;;12.70;99.90;;;;;;5097379;28;19944;-89
2022/09/16 04:46:36;;;;;;;;;;;12.70;99.90;;;;;;5089628;28;19913;-90
2022/09/16 04:49:03;;;;;;;;;;;12.70;99.90;;;;;;5092535;28;19950;-88
2022/09/16 04:51:31;;;;;;;;;;;12.80;99.90;;;;;;5087907;28;19920;-89
2022/09/16 04:53:58;;;;;;;;;;;12.70;99.90;;;;;;5098335;28;19919;-89
2022/09/16 05:02:36;;;;;;;;;;;12.40;99.90;;;;;;5097992;28;19912;-89
2022/09/16 05:05:02;;;;;;;;;;;12.70;99.90;;;;;;5091721;28;19932;-88
2022/09/16 05:07:30;;;;;;;;;;;12.70;99.90;;;;;;5077588;28;19917;-89
2022/09/16 05:09:57;;;;;;;;;;;12.60;99.90;;;;;;5078697;28;19913;-87
2022/09/16 05:12:23;;;;;;;;;;;12.60;99.90;;;;;;5085771;28;19932;-88
2022/09/16 05:14:50;;;;;;;;;;;12.70;99.90;;;;;;5098118;28;19922;-88
2022/09/16 05:17:29;;;;;;;;;;;12.70;99.90;;;;;;5097676;28;19968;-91
2022/09/16 05:19:57;;;;;;;;;;;12.70;99.90;;;;;;5088430;28;20200;-88
2022/09/16 05:22:23;;;;;;;;;;;12.60;99.90;;;;;;5085351;28;19980;-89
2022/09/16 05:24:50;;;;;;;;;;;12.60;99.90;;;;;;5084345;28;20215;-89
2022/09/16 05:27:17;;;;;;;;;;;12.60;99.90;;;;;;5085091;28;19928;-88
2022/09/16 05:29:44;;;;;;;;;;;12.60;99.90;;;;;;5070238;28;19949;-87
2022/09/16 05:32:10;;;;;;;;;;;12.60;99.90;;;;;;5068509;28;19920;-87
2022/09/16 05:34:37;;;;;;;;;;;12.60;99.90;;;;;;5083065;28;19925;-87
2022/09/16 05:37:05;;;;;;;;;;;12.60;99.90;;;;;;5082679;28;20231;-86
2022/09/16 05:39:32;;;;;;;;;;;12.60;99.90;;;;;;5082853;28;19927;-87
2022/09/16 05:42:00;;;;;;;;;;;12.60;99.90;;;;;;5083308;28;19927;-88
2022/09/16 05:44:27;;;;;;;;;;;12.60;99.90;;;;;;5083501;28;19991;-88
2022/09/16 05:46:54;;;;;;;;;;;12.60;99.90;;;;;;5083213;28;19944;-88
2022/09/16 05:49:22;;;;;;;;;;;12.60;99.90;;;;;;5082942;28;19950;-89
2022/09/16 05:51:49;;;;;;;;;;;12.60;99.90;;;;;;5083340;28;19991;-88
2022/09/16 05:54:18;;;;;;;;;;;12.60;99.90;;;;;;5083267;28;19921;-88
2022/09/16 05:56:44;;;;;;;;;;;12.70;99.90;;;;;;5083160;28;19920;-89
2022/09/16 05:59:12;;;;;;;;;;;12.70;99.90;;;;;;5082875;28;19921;-87
2022/09/16 06:01:39;;;;;;;;;;;12.70;99.90;;;;;;5082811;28;20238;-88
2022/09/16 06:04:07;;;;;;;;;;;12.70;99.90;;;;;;5075625;28;20223;-86
2022/09/16 06:06:34;;;;;;;;;;;12.70;99.90;;;;;;5078547;28;19966;-87
2022/09/16 06:09:04;;;;;;;;;;;12.70;99.90;;;;;;5081843;28;19951;-86
2022/09/16 06:11:35;;;;;;;;;;;12.70;99.90;;;;;;5083045;28;19956;-87
2022/09/16 06:14:02;;;;;;;;;;;12.70;99.90;;;;;;5082815;28;19983;-88
2022/09/16 06:16:31;;;;;;;;;;;12.70;99.90;;;;;;5082768;28;19979;-87
2022/09/16 06:18:58;;;;;;;;;;;12.70;99.90;;;;;;5082404;28;20166;-88
2022/09/16 06:21:25;;;;;;;;;;;12.70;99.90;;;;;;5082814;28;19982;-87
2022/09/16 06:23:52;;;;;;;;;;;12.70;99.90;;;;;;5082420;28;19951;-86
2022/09/16 06:26:20;;;;;;;;;;;12.80;99.90;;;;;;5081706;28;20178;-88
2022/09/16 06:28:48;;;;;;;;;;;12.80;99.90;;;;;;5081916;28;20152;-87
2022/09/16 06:31:18;;;;;;;;;;;12.70;99.90;;;;;;5070520;28;20214;-87
2022/09/16 06:33:45;;;;;;;;;;;12.80;99.90;;;;;;5082753;28;19944;-87
2022/09/16 06:36:12;;;;;;;;;;;12.70;99.90;;;;;;5082421;28;19921;-87
2022/09/16 06:38:39;;;;;;;;;;;12.80;99.90;;;;;;5082089;28;20257;-88
2022/09/16 06:41:07;;;;;;;;;;;12.70;99.90;;;;;;5082667;28;19929;-88
2022/09/16 06:43:34;;;;;;;;;;;12.80;99.90;;;;;;5083018;28;20187;-88
2022/09/16 06:46:03;;;;;;;;;;;12.70;99.90;;;;;;5082964;28;20053;-88
2022/09/16 06:48:32;;;;;;;;;;;12.70;99.90;;;;;;5082383;28;19940;-88
2022/09/16 06:50:59;;;;;;;;;;;12.70;99.90;;;;;;5082160;28;19951;-88
2022/09/16 06:53:26;;;;;;;;;;;12.70;99.90;;;;;;5082785;28;19984;-88
2022/09/16 06:55:53;;;;;;;;;;;12.70;99.90;;;;;;5082178;28;19920;-87
2022/09/16 06:58:19;;;;;;;;;;;12.70;99.90;;;;;;5081926;28;20220;-88
2022/09/16 07:00:46;;;;;;;;;;;12.70;99.90;;;;;;5082610;28;19987;-87
2022/09/16 07:03:14;;;;;;;;;;;12.70;99.90;;;;;;5074117;28;20105;-87
2022/09/16 07:05:41;;;;;;;;;;;12.70;99.90;;;;;;5074219;28;19928;-87
2022/09/16 07:08:07;;;;;;;;;;;12.70;99.90;;;;;;5081611;28;20168;-87
2022/09/16 07:10:34;;;;;;;;;;;12.70;99.90;;;;;;5082937;28;19988;-87
2022/09/16 07:13:01;;;;;;;;;;;12.70;99.90;;;;;;5082459;28;19987;-87
2022/09/16 07:15:27;;;;;;;;;;;12.70;99.90;;;;;;5082145;28;19974;-87
2022/09/16 07:17:55;;;;;;;;;;;12.80;99.90;;;;;;5081714;28;19948;-88
2022/09/16 07:20:23;;;;;;;;;;;12.80;99.90;;;;;;5083989;28;20127;-87
2022/09/16 07:22:52;;;;;;;;;;;12.80;99.90;;;;;;5082861;28;19944;-87
2022/09/16 07:25:19;;;;;;;;;;;12.80;99.90;;;;;;5082739;28;19927;-87
2022/09/16 07:27:46;;;;;;;;;;;12.90;99.90;;;;;;5081994;28;20335;-88
2022/09/16 07:30:13;;;;;;;;;;;12.90;99.90;;;;;;5077384;28;19921;-88
2022/09/16 07:32:39;;;;;;;;;;;12.90;99.90;;;;;;5066414;28;20258;-87
2022/09/16 07:35:07;;;;;;;;;;;12.90;99.90;;;;;;5069628;28;19928;-87
2022/09/16 07:37:36;;;;;;;;;;;13.00;99.90;;;;;;5085927;28;19921;-87
2022/09/16 07:40:03;;;;;;;;;;;13.00;99.90;;;;;;5087008;28;19948;-87
2022/09/16 07:42:29;;;;;;;;;;;13.00;99.90;;;;;;5092540;28;19920;-87
2022/09/16 07:44:56;;;;;;;;;;;13.10;99.90;;;;;;5094814;28;20007;-91
2022/09/16 07:47:23;;;;;;;;;;;13.10;99.90;;;;;;5089995;28;19936;-90
2022/09/16 07:49:54;;;;;;;;;;;13.10;99.90;;;;;;5089093;28;19920;-89
2022/09/16 07:52:21;;;;;;;;;;;13.20;99.90;;;;;;5089509;28;19921;-90
2022/09/16 07:54:50;;;;;;;;;;;13.20;99.90;;;;;;5088621;28;19951;-89
2022/09/16 07:57:17;;;;;;;;;;;13.10;99.90;;;;;;5089418;28;19961;-90
2022/09/16 07:59:44;;;;;;;;;;;13.10;99.90;;;;;;5089652;28;19928;-89
2022/09/16 08:02:10;;;;;;;;;;;13.10;99.90;;;;;;5090277;28;19999;-87
2022/09/16 08:04:37;;;;;;;;;;;13.10;99.90;;;;;;5080819;28;19927;-88
2022/09/16 08:07:04;;;;;;;;;;;13.10;99.90;;;;;;5090380;28;19948;-87
2022/09/16 08:09:30;;;;;;;;;;;13.10;99.90;;;;;;5093429;28;20284;-87
2022/09/16 08:11:59;;;;;;;;;;;13.10;99.90;;;;;;5087281;28;19920;-87
2022/09/16 08:14:26;;;;;;;;;;;13.10;99.90;;;;;;5087250;28;19921;-87
2022/09/16 08:16:52;;;;;;;;;;;13.10;99.90;;;;;;5086291;28;20000;-86
2022/09/16 08:19:21;;;;;;;;;;;13.20;99.90;;;;;;5086115;28;19921;-88
2022/09/16 08:21:47;;;;;;;;;;;13.20;99.90;;;;;;5086639;28;19975;-88
2022/09/16 08:24:15;;;;;;;;;;;13.20;99.90;;;;;;5086291;28;19944;-88
2022/09/16 08:26:42;;;;;;;;;;;13.30;99.90;;;;;;5086565;28;19932;-88
2022/09/16 08:29:09;;;;;;;;;;;13.20;99.90;;;;;;5077687;28;19967;-89
2022/09/16 08:31:36;;;;;;;;;;;13.40;99.90;;;;;;5078208;28;19944;-89
2022/09/16 08:34:03;;;;;;;;;;;13.40;99.90;;;;;;5086018;28;19940;-87
2022/09/16 08:36:32;;;;;;;;;;;13.40;99.90;;;;;;5085843;28;19920;-88
2022/09/16 08:38:58;;;;;;;;;;;13.50;99.90;;;;;;5086242;28;19927;-88
2022/09/16 08:41:33;;;;;;;;;;;13.50;99.90;;;;;;5085705;28;20128;-86
2022/09/16 08:44:06;;;;;;;;;;;13.50;99.90;;;;;;5085954;28;19920;-88
2022/09/16 08:46:36;;;;;;;;;;;13.50;99.90;;;;;;5085591;28;19947;-88
2022/09/16 08:49:06;;;;;;;;;;;13.50;99.90;;;;;;5084956;28;20217;-88
2022/09/16 08:51:33;;;;;;;;;;;13.50;99.90;;;;;;5085951;28;20235;-87
2022/09/16 08:54:02;;;;;;;;;;;13.50;99.90;;;;;;5085904;28;19976;-87
2022/09/16 08:56:30;;;;;;;;;;;13.60;99.90;;;;;;5077772;28;20235;-87
2022/09/16 08:59:00;;;;;;;;;;;13.60;99.90;;;;;;5084364;28;20180;-87
2022/09/16 09:01:29;;;;;;;;;;;13.60;99.90;;;;;;5085328;28;19980;-88
2022/09/16 09:03:57;;;;;;;;;;;13.60;99.90;;;;;;5082778;28;19929;-87
2022/09/16 09:06:31;;;;;;;;;;;13.60;99.90;;;;;;5067735;28;19929;-87
2022/09/16 09:09:03;;;;;;;;;;;13.60;99.90;;;;;;5084674;28;19927;-88
2022/09/16 09:11:32;;;;;;;;;;;13.60;99.90;;;;;;5085371;28;19950;-88
2022/09/16 09:14:14;;;;;;;;;;;13.70;99.90;;;;;;5069961;28;19948;-87
2022/09/16 09:16:45;;;;;;;;;;;13.60;99.90;;;;;;5066556;28;20244;-86
2022/09/16 09:19:30;;;;;;;;;;;13.70;99.90;;;;;;5084759;28;20235;-88
2022/09/16 09:22:00;;;;;;;;;;;13.70;99.90;;;;;;5084695;28;19920;-87
2022/09/16 09:24:42;;;;;;;;;;;13.70;99.90;;;;;;5084631;28;19921;-87
2022/09/16 09:27:13;;;;;;;;;;;13.70;99.90;;;;;;5084473;28;19959;-88
2022/09/16 09:29:51;;;;;;;;;;;13.70;99.90;;;;;;5064297;28;19948;-88
2022/09/16 09:32:21;;;;;;;;;;;13.80;99.90;;;;;;5084738;28;19927;-87
2022/09/16 09:34:58;;;;;;;;;;;13.80;99.90;;;;;;5084519;28;19920;-88
2022/09/16 09:37:34;;;;;;;;;;;13.80;99.90;;;;;;5084046;28;19976;-88
2022/09/16 09:40:06;;;;;;;;;;;13.80;99.90;;;;;;5084257;28;19927;-86
2022/09/16 09:42:41;;;;;;;;;;;13.80;99.90;;;;;;5084205;28;19920;-86
2022/09/16 09:45:14;;;;;;;;;;;13.80;99.90;;;;;;5083684;28;19935;-87
2022/09/16 09:47:43;;;;;;;;;;;13.90;99.90;;;;;;5083026;28;19920;-87
2022/09/16 09:50:15;;;;;;;;;;;13.90;99.90;;;;;;5083802;28;19962;-87
2022/09/16 09:58:58;;;;;;;;;;;13.80;99.90;;;;;;4867419;28;19950;-86
2022/09/16 10:01:26;;;;;;;;;;;13.80;99.90;;;;;;5081322;28;19987;-87
2022/09/16 10:10:34;;;;;;;;;;;13.80;99.90;;;;;;5135468;27;19946;-70
2022/09/16 10:13:11;;;;;;;;;;;13.90;99.90;;;;;;5124221;27;19919;-71
2022/09/16 10:15:38;;;;;;;;;;;13.90;99.90;;;;;;5121599;28;20146;-71
2022/09/16 10:18:11;;;;;;;;;;;13.90;99.90;;;;;;5120954;28;19920;-72
2022/09/16 10:20:39;;;;;;;;;;;13.90;99.90;;;;;;5121471;28;20343;-71
2022/09/16 10:23:12;;;;;;;;;;;13.90;99.90;;;;;;5121589;28;19920;-72
2022/09/16 10:25:40;;;;;;;;;;;13.90;99.90;;;;;;5121142;28;19943;-72
2022/09/16 10:28:19;;;;;;;;;;;13.90;99.90;;;;;;5108719;28;19920;-71
2022/09/16 10:30:53;;;;;;;;;;;13.90;99.90;;;;;;5100909;28;19920;-71
2022/09/16 10:33:24;;;;;;;;;;;13.90;99.90;;;;;;5100548;28;19920;-71
2022/09/16 10:35:54;;;;;;;;;;;13.90;99.90;;;;;;5100152;28;19924;-72
2022/09/16 10:38:21;;;;;;;;;;;14.00;99.90;;;;;;5106057;28;19940;-72
2022/09/16 10:40:53;;;;;;;;;;;13.90;99.90;;;;;;5117762;28;19932;-71
2022/09/16 10:43:22;;;;;;;;;;;13.90;99.90;;;;;;5112719;28;20215;-72
2022/09/16 10:45:52;;;;;;;;;;;13.90;99.90;;;;;;5097557;28;19920;-72
2022/09/16 10:48:32;;;;;;;;;;;13.90;99.90;;;;;;5099611;28;20165;-71
2022/09/16 10:51:32;;;;;;;;;;;13.90;99.90;;;;;;5100445;28;19927;-72
2022/09/16 10:57:20;;;;;;;;;;;13.90;99.90;;;;;;5113070;28;19916;-71
2022/09/16 10:59:55;;;;;;;;;;;13.80;99.90;;;;;;5114198;28;19920;-72
2022/09/16 11:02:29;;;;;;;;;;;13.90;99.90;;;;;;5130404;27;19927;-72
2022/09/16 11:05:00;;;;;;;;;;;14.00;99.90;;;;;;5105150;28;19928;-72
2022/09/16 11:07:35;;;;;;;;;;;14.00;99.90;;;;;;5118622;28;20251;-71
2022/09/16 11:10:08;;;;;;;;;;;13.90;99.90;;;;;;5112379;28;19920;-71
2022/09/16 11:12:44;;;;;;;;;;;13.90;99.90;;;;;;5120707;28;19985;-72
2022/09/16 11:15:15;;;;;;;;;;;13.80;99.90;;;;;;5103947;28;19927;-71
2022/09/16 11:17:49;;;;;;;;;;;13.80;99.90;;;;;;5099754;28;19983;-71
2022/09/16 11:20:39;;;;;;;;;;;13.80;99.90;;;;;;5095834;28;19951;-72
2022/09/16 11:23:08;;;;;;;;;;;13.90;99.90;;;;;;5098955;28;20111;-72
2022/09/16 11:25:39;;;;;;;;;;;14.00;99.90;;;;;;5107015;28;20192;-71
2022/09/16 11:28:17;;;;;;;;;;;14.10;99.90;;;;;;5106571;28;19958;-71
2022/09/16 11:30:49;;;;;;;;;;;14.10;99.90;;;;;;5105990;28;20258;-71
2022/09/16 11:33:22;;;;;;;;;;;14.10;99.90;;;;;;5099998;28;19920;-71
2022/09/16 11:36:17;;;;;;;;;;;14.10;99.90;;;;;;5085907;28;19983;-71
2022/09/16 11:38:49;;;;;;;;;;;14.10;99.90;;;;;;5092498;28;19919;-71
2022/09/16 11:41:20;;;;;;;;;;;14.10;99.90;;;;;;5085695;28;19920;-71
2022/09/16 11:47:22;;;;;;;;;;;14.00;99.90;;;;;;5051650;28;21280;-70
2022/09/16 11:50:08;;;;;;;;;;;14.10;99.90;;;;;;5085185;28;19928;-71
2022/09/16 11:52:59;;;;;;;;;;;14.00;99.90;;;;;;5084873;28;19942;-71
2022/09/16 11:55:30;;;;;;;;;;;14.00;99.90;;;;;;5082703;28;19984;-71
2022/09/16 11:58:02;;;;;;;;;;;14.00;99.90;;;;;;5085048;28;19926;-71
2022/09/16 12:00:36;;;;;;;;;;;14.00;99.90;;;;;;5094242;28;19920;-71
2022/09/16 12:03:21;;;;;;;;;;;14.00;99.90;;;;;;5105599;28;19920;-71
2022/09/16 12:05:52;;;;;;;;;;;14.00;99.90;;;;;;5105504;28;19939;-71
2022/09/16 12:08:22;;;;;;;;;;;14.10;99.90;;;;;;5104958;28;19920;-71
2022/09/16 12:10:51;;;;;;;;;;;14.10;99.90;;;;;;5094180;28;19920;-71
2022/09/16 12:13:20;;;;;;;;;;;14.10;99.90;;;;;;5089577;28;19920;-70
2022/09/16 12:15:49;;;;;;;;;;;14.20;99.90;;;;;;5084178;28;20230;-70
2022/09/16 12:18:27;;;;;;;;;;;14.20;99.90;;;;;;5084319;28;19925;-69
2022/09/16 12:20:57;;;;;;;;;;;14.30;99.90;;;;;;5094634;28;19958;-70
2022/09/16 12:23:29;;;;;;;;;;;14.30;99.90;;;;;;5095654;28;19931;-70
2022/09/16 12:26:28;;;;;;;;;;;14.40;99.90;;;;;;5084562;28;19996;-70
2022/09/16 12:31:46;;;;;;;;;;;14.50;99.90;;;;;;5082597;28;19952;-70
2022/09/16 12:34:16;;;;;;;;;;;14.50;99.90;;;;;;5100134;28;19920;-70
2022/09/16 12:36:58;;;;;;;;;;;14.50;99.90;;;;;;5104340;28;19959;-70
2022/09/16 12:39:29;;;;;;;;;;;14.50;99.90;;;;;;5102558;28;19983;-70
2022/09/16 12:42:10;;;;;;;;;;;14.50;99.90;;;;;;5102611;28;20118;-69
2022/09/16 12:44:55;;;;;;;;;;;14.50;99.90;;;;;;5102327;28;19979;-69
2022/09/16 12:47:40;;;;;;;;;;;14.50;99.90;;;;;;5104615;28;19934;-70
2022/09/16 12:50:16;;;;;;;;;;;14.50;99.90;;;;;;5083843;28;19920;-71
2022/09/16 12:53:04;;;;;;;;;;;14.50;99.90;;;;;;5104635;28;19926;-70
2022/09/16 12:55:39;;;;;;;;;;;14.50;99.90;;;;;;5101075;28;19927;-69
2022/09/16 12:58:17;;;;;;;;;;;14.40;99.90;;;;;;5103621;28;19920;-70
2022/09/16 13:00:50;;;;;;;;;;;14.40;99.90;;;;;;5092120;28;20006;-70
2022/09/16 13:08:22;;;;;;;;;;;15.60;99.90;;;;;;5080226;28;19920;-87
2022/09/16 13:10:55;;;;;;;;;;;15.70;99.90;;;;;;5085855;28;19966;-87
2022/09/16 13:13:27;;;;;;;;;;;15.80;99.90;;;;;;5074481;28;20243;-86
2022/09/16 13:15:55;;;;;;;;;;;15.60;99.90;;;;;;5082498;22;19987;-70
2022/09/16 13:18:25;;;;;;;;;;;15.50;99.90;;;;;;5063733;28;19927;-69
2022/09/16 13:20:55;;;;;;;;;;;15.30;99.90;;;;;;5062885;28;19929;-69
2022/09/16 13:23:24;;;;;;;;;;;15.20;99.90;;;;;;5063627;28;20230;-70
2022/09/16 13:25:57;;;;;;;;;;;15.40;99.90;;;;;;5056821;28;19935;-69
2022/09/16 13:28:27;;;;;;;;;;;15.80;99.90;;;;;;5060496;28;19928;-69
2022/09/16 13:30:54;;;;;;;;;;;15.80;99.90;;;;;;5043228;28;19921;-69
2022/09/16 13:33:29;;;;;;;;;;;15.90;99.90;;;;;;5043335;28;19928;-69
2022/09/16 13:36:04;;;;;;;;;;;16.00;99.90;;;;;;5042993;28;19929;-69
2022/09/16 13:38:40;;;;;;;;;;;16.20;99.90;;;;;;5043289;28;19927;-69
2022/09/16 13:41:06;;;;;;;;;;;16.30;99.90;;;;;;5042807;28;19921;-69
2022/09/16 13:43:35;;;;;;;;;;;16.30;99.90;;;;;;5043435;28;19921;-69
2022/09/16 13:46:06;;;;;;;;;;;16.30;99.90;;;;;;5042678;28;19980;-70
2022/09/16 13:48:35;;;;;;;;;;;16.20;99.90;;;;;;5043211;28;20223;-71
2022/09/16 13:51:06;;;;;;;;;;;16.10;99.90;;;;;;5042429;28;19927;-70
2022/09/16 13:53:35;;;;;;;;;;;16.10;99.90;;;;;;5042783;28;20212;-70
2022/09/16 13:56:05;;;;;;;;;;;15.90;99.90;;;;;;5047603;28;19957;-70
2022/09/16 13:58:36;;;;;;;;;;;15.80;99.90;;;;;;5043314;28;19984;-69
2022/09/16 14:01:06;;;;;;;;;;;15.80;99.90;;;;;;5043206;28;19921;-69
2022/09/16 14:03:44;;;;;;;;;;;15.80;99.90;;;;;;5043335;28;19987;-70
2022/09/16 14:06:22;;;;;;;;;;;15.70;99.90;;;;;;5042913;28;20200;-72
2022/09/16 14:08:55;;;;;;;;;;;15.70;99.90;;;;;;5057518;28;19921;-69
2022/09/16 14:11:28;;;;;;;;;;;15.80;99.90;;;;;;5056106;28;19960;-69
2022/09/16 14:13:56;;;;;;;;;;;16.10;99.90;;;;;;5031896;28;19921;-69
2022/09/16 14:16:24;;;;;;;;;;;16.30;99.90;;;;;;5042736;28;20201;-74
2022/09/16 14:18:54;;;;;;;;;;;16.50;99.90;;;;;;5042873;28;19927;-71
2022/09/16 14:21:22;;;;;;;;;;;16.60;99.90;;;;;;5042781;28;19944;-71
2022/09/16 14:23:49;;;;;;;;;;;16.50;99.90;;;;;;5042929;28;20276;-70
2022/09/16 14:26:16;;;;;;;;;;;16.40;99.90;;;;;;5042835;28;19957;-71
2022/09/16 14:28:44;;;;;;;;;;;16.20;99.90;;;;;;5043212;28;19984;-71
2022/09/16 14:31:14;;;;;;;;;;;15.90;99.90;;;;;;5042952;28;19927;-71
2022/09/16 14:33:43;;;;;;;;;;;15.80;99.90;;;;;;5042876;28;19989;-71
2022/09/16 14:36:11;;;;;;;;;;;15.60;99.90;;;;;;5042584;28;19928;-71
2022/09/16 14:38:40;;;;;;;;;;;15.50;99.90;;;;;;5042897;28;19921;-71
2022/09/16 14:41:07;;;;;;;;;;;15.20;99.90;;;;;;5042897;28;19921;-70
2022/09/16 14:43:36;;;;;;;;;;;15.00;99.90;;;;;;5042791;28;19921;-70
2022/09/16 14:46:06;;;;;;;;;;;14.80;99.90;;;;;;5042274;28;19921;-70
2022/09/16 14:48:35;;;;;;;;;;;14.80;99.90;;;;;;5043001;28;19920;-71
2022/09/16 14:51:02;;;;;;;;;;;14.60;99.90;;;;;;5042664;28;19927;-71
2022/09/16 14:53:30;;;;;;;;;;;14.40;99.90;;;;;;5042801;28;19971;-70
2022/09/16 14:55:57;;;;;;;;;;;14.20;99.90;;;;;;5043715;28;19931;-70
2022/09/16 14:58:25;;;;;;;;;;;13.90;99.90;;;;;;5046778;28;19940;-69
2022/09/16 15:00:53;;;;;;;;;;;13.60;99.90;;;;;;5046445;28;19984;-71
2022/09/16 15:03:23;;;;;;;;;;;13.30;99.90;;;;;;5046673;28;19995;-71
2022/09/16 15:05:51;;;;;;;;;;;13.10;99.90;;;;;;5046500;28;19921;-71
2022/09/16 15:08:19;;;;;;;;;;;12.90;99.90;;;;;;5046475;28;19988;-71
2022/09/16 15:10:47;;;;;;;;;;;12.80;99.90;;;;;;5046199;28;19927;-69
2022/09/16 15:13:15;;;;;;;;;;;12.60;99.90;;;;;;5046291;28;19925;-70
2022/09/16 15:15:46;;;;;;;;;;;12.50;99.90;;;;;;5044637;28;20124;-70
2022/09/16 15:18:19;;;;;;;;;;;12.60;99.90;;;;;;5044811;28;19956;-69
2022/09/16 15:20:53;;;;;;;;;;;12.50;99.90;;;;;;5045480;28;19927;-70
2022/09/16 15:23:22;;;;;;;;;;;12.50;99.90;;;;;;5046423;28;19952;-69
2022/09/16 15:25:53;;;;;;;;;;;12.50;99.90;;;;;;5060855;28;19955;-70
2022/09/16 15:28:20;;;;;;;;;;;12.60;99.90;;;;;;5046468;28;19925;-69
2022/09/16 15:30:48;;;;;;;;;;;12.70;99.90;;;;;;5042409;28;20117;-70
2022/09/16 15:33:26;;;;;;;;;;;12.70;99.90;;;;;;5045653;28;19921;-70
2022/09/16 15:35:55;;;;;;;;;;;12.70;99.90;;;;;;5047893;28;19921;-70
2022/09/16 15:38:22;;;;;;;;;;;12.70;99.90;;;;;;5048702;28;19921;-70
2022/09/16 15:41:00;;;;;;;;;;;12.80;99.90;;;;;;5040824;28;19925;-70
2022/09/16 15:43:28;;;;;;;;;;;12.70;99.90;;;;;;5041631;28;19984;-74
2022/09/16 15:45:58;;;;;;;;;;;12.70;99.90;;;;;;5042278;28;19943;-70
2022/09/16 15:48:27;;;;;;;;;;;12.70;99.90;;;;;;5042758;28;19933;-71
2022/09/16 15:50:57;;;;;;;;;;;12.80;99.90;;;;;;5045571;28;20200;-70
2022/09/16 15:53:34;;;;;;;;;;;12.90;99.90;;;;;;5046225;28;19927;-70
2022/09/16 15:56:04;;;;;;;;;;;12.90;99.90;;;;;;5042990;28;19921;-70
2022/09/16 15:58:38;;;;;;;;;;;12.90;99.90;;;;;;5044374;28;19987;-70
2022/09/16 16:01:07;;;;;;;;;;;12.90;99.90;;;;;;5047354;28;19936;-70
2022/09/16 16:03:37;;;;;;;;;;;13.00;99.90;;;;;;5047669;28;19988;-70
2022/09/16 16:06:05;;;;;;;;;;;13.00;99.90;;;;;;5046110;28;19921;-70
2022/09/16 16:08:40;;;;;;;;;;;12.90;99.90;;;;;;5045568;28;19984;-70